Annapolis, CA (95412)

5:25 AM PDT on March 25, 2017 (GMT -0700)
Creekside | | Change Station

Elev 479 ft 38.71 °N, 123.32 °W | Updated 3 minutes ago

Clear
Clear
43.0 °F
Feels Like 43 °F
N
0.0
Wind Variable Wind from ENE
Gusts 0.0 mph

Today
High -- | Low -- °F
--% Chance of Precip.
Yesterday
High -- | Low -- °F
Precip. -- in
Pressure 30.16 in
Visibility 8.0 miles
Clouds Mostly Cloudy 300 ft
Windchill 43 °F
Dew Point 20 °F
Humidity 40%
Rainfall 0.00 in
Snow Depth Not available.
7:08 AM 7:30 PM
Waning Crescent, 8% visible
SPECI KUKI 251209Z AUTO 00000KT 8SM BKN003 07/06 A3016 RMK AO2 T00670056
Pressure 30.16 in
Visibility 8.0 miles
Clouds Mostly Cloudy 300 ft
Windchill 43 °F
Dew Point 20 °F
Humidity 40%
Rainfall 0.00 in
Snow Depth Not available.
7:08 AM 7:30 PM
Waning Crescent, 8% visible
SPECI KUKI 251209Z AUTO 00000KT 8SM BKN003 07/06 A3016 RMK AO2 T00670056

Get Severe Weather Alerts

Thanks for signing up!

Be on the lookout for a verification email in your inbox.

You'll start receiving the daily forecast at 8 AM.

×

10-Day Weather Forecast

Almanac

Astronomy

Mar. 25, 2017 Rise Set
Actual Time
Civil Twilight
Nautical Twilight
Astronomical Twilight
Moon
Length of Visible Light
Length of Day
Tomorrow will be .
, % of the Moon is Illuminated

Today's Extremes

State Highs State Lows

Community

WunderPhotos

Upload Photos

1,962,540 photos uploaded!

WunderBlog® & News

Nearby

Air Quality

  Air Quality AQ Index Pollutant
Not available.

Snow Depth

Station Depth Elevation

Earthquake Activity

City Distance Mag. Time & Date
Minimum magnitude displayed is 2.5.

Earthquake Activity

City Distance Mag. Time & Date
Minimum magnitude displayed is 2.5.

Coastal Water Temperatures

Place Temperature

Stations

Nearby Weather Stations

Station Location Temp. Windchill Dew Point Humidity Wind Precip. Elev Updated Type
                   

Watches & Warnings

There are currently no watches in effect.